createdAt,value
2019-02-09T00:01:37.955Z,87.50
2019-02-09T00:04:07.029Z,87.30
2019-02-09T00:06:35.927Z,86.90
2019-02-09T00:09:08.156Z,86.90
2019-02-09T00:11:37.266Z,86.90
2019-02-09T00:14:06.331Z,87.10
2019-02-09T00:16:35.536Z,86.70
2019-02-09T00:19:04.709Z,86.40
2019-02-09T00:21:33.631Z,86.10
2019-02-09T00:24:02.558Z,85.60
2019-02-09T00:26:31.509Z,85.40
2019-02-09T00:29:00.497Z,85.20
2019-02-09T00:31:30.087Z,84.70
2019-02-09T00:33:59.081Z,84.60
2019-02-09T00:36:28.167Z,84.30
2019-02-09T00:38:57.084Z,84.10
2019-02-09T00:41:25.988Z,83.70
2019-02-09T00:43:55.507Z,83.60
2019-02-09T00:46:24.794Z,82.80
2019-02-09T00:48:54.343Z,83.00
2019-02-09T00:51:23.381Z,83.30
2019-02-09T00:53:52.322Z,83.10
2019-02-09T00:56:21.284Z,82.10
2019-02-09T00:58:50.140Z,82.00
2019-02-09T01:01:19.058Z,81.70
2019-02-09T01:03:54.285Z,80.60
2019-02-09T01:06:23.340Z,80.40
2019-02-09T01:08:52.369Z,80.60
2019-02-09T01:11:21.489Z,80.20
2019-02-09T01:13:50.414Z,80.20
2019-02-09T01:16:19.431Z,80.00
2019-02-09T01:18:48.467Z,79.70
2019-02-09T01:21:17.417Z,79.40
2019-02-09T01:23:46.357Z,79.60
2019-02-09T01:26:15.287Z,79.50
2019-02-09T01:28:44.274Z,79.20
2019-02-09T01:31:13.331Z,79.10
2019-02-09T01:33:42.323Z,79.10
2019-02-09T01:36:11.350Z,79.60
2019-02-09T01:38:40.437Z,79.80
2019-02-09T01:41:09.602Z,78.70
2019-02-09T01:43:38.638Z,78.90
2019-02-09T01:46:07.849Z,79.00
2019-02-09T01:48:36.796Z,78.40
2019-02-09T01:51:05.869Z,78.60
2019-02-09T01:53:35.105Z,78.00
2019-02-09T01:56:04.334Z,78.00
2019-02-09T01:58:33.294Z,77.80
2019-02-09T02:01:02.253Z,77.60
2019-02-09T02:03:31.225Z,77.90
2019-02-09T02:06:00.313Z,78.20
2019-02-09T02:08:29.350Z,77.90
2019-02-09T02:10:58.419Z,77.60
2019-02-09T02:13:27.348Z,77.30
2019-02-09T02:15:56.285Z,76.90
2019-02-09T02:18:25.162Z,77.00
2019-02-09T02:20:54.186Z,76.80
2019-02-09T02:23:23.174Z,76.30
2019-02-09T02:25:52.273Z,76.90
2019-02-09T02:28:21.358Z,76.40
2019-02-09T02:30:50.285Z,76.20
2019-02-09T02:33:19.343Z,75.60
2019-02-09T02:35:48.599Z,75.40
2019-02-09T02:38:17.694Z,75.40
2019-02-09T02:40:46.780Z,75.30
2019-02-09T02:43:15.777Z,75.00
2019-02-09T02:45:44.718Z,74.90
2019-02-09T02:48:13.696Z,74.40
2019-02-09T02:50:42.661Z,74.70
2019-02-09T02:53:11.600Z,74.50
2019-02-09T02:55:40.438Z,74.10
2019-02-09T02:58:09.571Z,73.40
2019-02-09T03:00:38.871Z,73.70
2019-02-09T03:03:07.908Z,73.20
2019-02-09T03:05:36.900Z,73.40
2019-02-09T03:08:06.440Z,73.40
2019-02-09T03:10:35.471Z,72.10
2019-02-09T03:13:04.564Z,72.50
2019-02-09T03:15:33.869Z,71.60
2019-02-09T03:18:02.792Z,71.50
2019-02-09T03:20:31.917Z,71.30
2019-02-09T03:23:00.939Z,71.10
2019-02-09T03:25:31.342Z,70.70
2019-02-09T03:28:00.441Z,70.40
2019-02-09T03:30:29.805Z,70.80
2019-02-09T03:32:58.739Z,69.90
2019-02-09T03:35:27.907Z,69.70
2019-02-09T03:37:56.857Z,70.20
2019-02-09T03:40:26.100Z,70.00
2019-02-09T03:42:55.330Z,70.00
2019-02-09T03:45:26.106Z,70.00
2019-02-09T03:47:55.504Z,70.30
2019-02-09T03:50:25.692Z,70.30
2019-02-09T03:52:54.752Z,69.30
2019-02-09T03:55:23.744Z,69.20
2019-02-09T03:57:52.998Z,69.20
2019-02-09T04:00:23.494Z,70.00
2019-02-09T04:02:52.597Z,69.30
2019-02-09T04:05:21.838Z,69.00
2019-02-09T04:07:51.018Z,69.20
2019-02-09T04:10:21.225Z,69.30
2019-02-09T04:12:50.321Z,68.70
2019-02-09T04:15:20.692Z,68.70
2019-02-09T04:17:49.611Z,68.10
2019-02-09T04:20:19.413Z,68.70
2019-02-09T04:22:48.717Z,68.50
2019-02-09T04:25:18.519Z,68.30
2019-02-09T04:27:48.090Z,68.10
2019-02-09T04:30:22.533Z,68.10
2019-02-09T04:32:51.535Z,67.50
2019-02-09T04:35:21.366Z,67.20
2019-02-09T04:37:50.461Z,67.10
2019-02-09T04:40:24.392Z,67.10
2019-02-09T04:42:53.553Z,67.40
2019-02-09T04:45:22.652Z,66.70
2019-02-09T04:47:52.005Z,66.40
2019-02-09T04:50:21.050Z,66.70
2019-02-09T04:52:50.086Z,66.70
2019-02-09T04:55:20.537Z,66.30
2019-02-09T04:57:49.715Z,66.20
2019-02-09T05:00:24.175Z,66.20
2019-02-09T05:02:53.338Z,66.20
2019-02-09T05:05:22.414Z,65.50
2019-02-09T05:07:51.559Z,65.50
2019-02-09T05:10:21.130Z,65.10
2019-02-09T05:12:50.291Z,65.60
2019-02-09T05:15:19.518Z,65.90
2019-02-09T05:17:48.604Z,66.40
2019-02-09T05:20:19.616Z,67.00
2019-02-09T05:22:48.754Z,67.50
2019-02-09T05:25:17.893Z,66.80
2019-02-09T05:27:46.812Z,66.80
2019-02-09T05:30:21.035Z,66.30
2019-02-09T05:32:53.882Z,65.90
2019-02-09T05:35:23.096Z,65.80
2019-02-09T05:37:52.094Z,65.60
2019-02-09T05:40:21.804Z,65.40
2019-02-09T05:42:50.846Z,65.50
2019-02-09T05:45:21.622Z,65.40
2019-02-09T05:47:50.740Z,66.20
2019-02-09T05:50:20.379Z,67.30
2019-02-09T05:52:50.152Z,68.80
2019-02-09T05:55:21.282Z,69.90
2019-02-09T05:57:50.529Z,70.50
2019-02-09T06:00:30.500Z,71.30
2019-02-09T06:02:59.558Z,71.90
2019-02-09T06:05:28.515Z,71.90
2019-02-09T06:07:57.606Z,71.10
2019-02-09T06:10:26.710Z,71.20
2019-02-09T06:13:00.452Z,71.60
2019-02-09T06:15:29.830Z,71.90
2019-02-09T06:17:58.984Z,72.40
2019-02-09T06:20:28.188Z,74.00
2019-02-09T06:22:57.316Z,75.60
2019-02-09T06:25:26.512Z,77.30
2019-02-09T06:27:55.806Z,79.40
2019-02-09T06:30:27.943Z,80.50
2019-02-09T06:32:57.605Z,81.50
2019-02-09T06:35:26.816Z,83.20
2019-02-09T06:37:56.133Z,85.20
2019-02-09T06:40:28.055Z,85.10
2019-02-09T06:42:57.170Z,85.40
2019-02-09T06:45:26.555Z,86.60
2019-02-09T06:48:18.872Z,87.50
2019-02-09T06:50:47.869Z,88.70
2019-02-09T06:53:17.028Z,89.10
2019-02-09T06:55:46.098Z,89.20
2019-02-09T06:58:15.272Z,88.90
2019-02-09T07:00:44.228Z,88.40
2019-02-09T07:03:13.367Z,88.30
2019-02-09T07:05:42.621Z,88.70
2019-02-09T07:08:13.011Z,88.70
2019-02-09T07:10:42.285Z,88.60
2019-02-09T07:13:11.442Z,89.10
2019-02-09T07:15:40.375Z,89.70
2019-02-09T07:18:10.491Z,90.20
2019-02-09T07:20:39.751Z,90.10
2019-02-09T07:23:09.036Z,90.20
2019-02-09T07:25:39.667Z,90.20
2019-02-09T07:28:08.953Z,91.00
2019-02-09T07:30:38.026Z,91.80
2019-02-09T07:33:07.558Z,92.80
2019-02-09T07:35:36.730Z,93.60
2019-02-09T07:38:05.873Z,93.90
2019-02-09T07:40:34.916Z,94.40
2019-02-09T07:43:04.352Z,95.20
2019-02-09T07:45:33.725Z,96.00
2019-02-09T07:48:02.813Z,97.20
2019-02-09T07:50:33.667Z,97.10
2019-02-09T07:53:02.506Z,98.00
2019-02-09T07:55:31.963Z,99.10
2019-02-09T07:58:00.965Z,99.20
2019-02-09T08:00:30.467Z,99.90
2019-02-09T08:03:00.125Z,99.90
2019-02-09T08:05:29.979Z,99.90
2019-02-09T08:07:59.295Z,99.90
2019-02-09T08:10:30.420Z,99.90
2019-02-09T08:13:00.156Z,99.90
2019-02-09T08:15:42.128Z,99.90
2019-02-09T08:18:11.412Z,99.90
2019-02-09T08:20:40.626Z,99.90
2019-02-09T08:23:10.673Z,99.90
2019-02-09T08:25:40.141Z,99.90
2019-02-09T08:28:09.693Z,99.90
2019-02-09T08:30:43.441Z,99.90
2019-02-09T08:33:12.554Z,99.90
2019-02-09T08:35:42.659Z,99.90
2019-02-09T08:38:13.375Z,99.90
2019-02-09T08:40:42.475Z,99.90
2019-02-09T08:43:11.719Z,99.90
2019-02-09T08:45:41.233Z,99.90
2019-02-09T08:48:10.585Z,99.90
2019-02-09T08:50:42.891Z,99.90
2019-02-09T08:53:12.426Z,99.90
2019-02-09T08:55:41.327Z,99.90
2019-02-09T08:58:10.349Z,99.90
2019-02-09T09:00:39.752Z,99.90
2019-02-09T09:03:08.851Z,99.90
2019-02-09T09:05:38.216Z,99.90
2019-02-09T09:08:07.447Z,99.90
2019-02-09T09:10:36.628Z,99.90
2019-02-09T09:13:05.938Z,99.90
2019-02-09T09:15:40.986Z,99.90
2019-02-09T09:18:10.159Z,99.90
2019-02-09T09:20:41.821Z,99.90
2019-02-09T09:23:10.785Z,99.90
2019-02-09T09:25:40.078Z,99.90
2019-02-09T09:28:09.259Z,99.90
2019-02-09T09:30:38.367Z,99.90
2019-02-09T09:33:07.527Z,99.90
2019-02-09T09:35:36.644Z,99.90
2019-02-09T09:38:06.022Z,99.90
2019-02-09T09:40:37.456Z,99.90
2019-02-09T09:43:06.916Z,99.90
2019-02-09T09:45:37.664Z,99.90
2019-02-09T09:48:08.461Z,99.90
2019-02-09T09:50:37.663Z,99.90
2019-02-09T09:53:06.802Z,99.90
2019-02-09T09:55:35.966Z,99.90
2019-02-09T09:58:05.508Z,99.90
2019-02-09T10:00:34.613Z,99.90
2019-02-09T10:03:03.765Z,99.90
2019-02-09T10:05:32.834Z,99.90
2019-02-09T10:08:01.964Z,99.90
2019-02-09T10:10:31.232Z,99.90
2019-02-09T10:13:00.606Z,99.90
2019-02-09T10:15:29.762Z,99.90
2019-02-09T10:17:58.962Z,99.90
2019-02-09T10:20:28.435Z,99.90
2019-02-09T10:22:57.970Z,99.90
2019-02-09T10:25:27.286Z,99.80
2019-02-09T10:27:56.525Z,99.60
2019-02-09T10:30:27.002Z,99.10
2019-02-09T10:32:56.085Z,98.50
2019-02-09T10:35:25.214Z,98.10
2019-02-09T10:37:54.412Z,98.10
2019-02-09T10:40:27.581Z,97.60
2019-02-09T10:42:57.190Z,97.20
2019-02-09T10:45:27.972Z,96.90
2019-02-09T10:47:57.365Z,96.80
2019-02-09T10:50:45.920Z,96.20
2019-02-09T10:53:14.998Z,95.60
2019-02-09T10:55:44.228Z,95.30
2019-02-09T10:58:13.429Z,94.80
2019-02-09T11:00:54.078Z,94.60
2019-02-09T11:03:23.364Z,94.10
2019-02-09T11:05:52.455Z,93.40
2019-02-09T11:08:21.612Z,92.40
2019-02-09T11:10:50.612Z,92.10
2019-02-09T11:13:20.471Z,90.80
2019-02-09T11:15:49.636Z,90.20
2019-02-09T11:18:18.807Z,90.00
2019-02-09T11:20:47.860Z,89.80
2019-02-09T11:23:18.339Z,89.60
2019-02-09T11:25:47.458Z,87.70
2019-02-09T11:28:16.684Z,87.70
2019-02-09T11:30:45.957Z,87.10
2019-02-09T11:33:15.116Z,86.10
2019-02-09T11:35:44.335Z,85.60
2019-02-09T11:38:13.575Z,85.40
2019-02-09T11:40:42.884Z,84.40
2019-02-09T11:43:12.490Z,84.00
2019-02-09T11:45:42.304Z,82.70
2019-02-09T11:48:11.599Z,81.00
2019-02-09T11:50:40.511Z,81.40
2019-02-09T11:53:09.896Z,80.70
2019-02-09T11:55:39.203Z,80.90
2019-02-09T11:58:08.248Z,81.00
2019-02-09T12:00:40.482Z,80.40
2019-02-09T12:03:15.087Z,79.80
2019-02-09T12:05:40.137Z,80.10
2019-02-09T12:08:09.591Z,79.90
2019-02-09T12:10:40.166Z,79.40
2019-02-09T12:13:09.430Z,79.30
2019-02-09T12:15:38.916Z,77.60
2019-02-09T12:18:08.830Z,78.10
2019-02-09T12:20:38.194Z,77.30
2019-02-09T12:23:07.691Z,76.40
2019-02-09T12:25:37.195Z,76.70
2019-02-09T12:28:07.161Z,80.90
2019-02-09T12:30:36.982Z,85.40
2019-02-09T12:33:08.005Z,88.80
2019-02-09T12:35:38.360Z,89.40
2019-02-09T12:38:07.899Z,90.00
2019-02-09T12:40:38.744Z,89.60
2019-02-09T12:43:08.129Z,90.00
2019-02-09T12:45:38.237Z,87.20
2019-02-09T12:48:07.559Z,86.00
2019-02-09T12:50:37.033Z,83.80
2019-02-09T12:53:06.388Z,83.20
2019-02-09T12:55:35.671Z,83.20
2019-02-09T12:58:05.607Z,81.60
2019-02-09T13:00:35.427Z,79.50
2019-02-09T13:03:10.657Z,80.10
2019-02-09T13:05:39.749Z,79.20
2019-02-09T13:08:08.787Z,79.50
2019-02-09T13:10:37.813Z,79.60
2019-02-09T13:13:06.918Z,79.40
2019-02-09T13:15:35.913Z,79.40
2019-02-09T13:18:05.662Z,80.00
2019-02-09T13:20:34.730Z,79.50
2019-02-09T13:23:05.130Z,80.00
2019-02-09T13:25:34.940Z,79.70
2019-02-09T13:28:04.419Z,79.60
2019-02-09T13:30:34.089Z,80.20
2019-02-09T13:33:03.174Z,80.30
2019-02-09T13:35:32.446Z,80.20
2019-02-09T13:38:01.529Z,80.60
2019-02-09T13:40:31.136Z,81.10
2019-02-09T13:43:00.391Z,81.00
2019-02-09T13:45:35.831Z,80.80
2019-02-09T13:48:05.591Z,80.10
2019-02-09T13:50:35.353Z,79.70
2019-02-09T13:53:04.900Z,78.60
2019-02-09T13:55:34.039Z,77.90
2019-02-09T13:58:03.319Z,76.10
2019-02-09T14:00:32.640Z,75.50
2019-02-09T14:03:01.790Z,74.10
2019-02-09T14:05:30.913Z,73.70
2019-02-09T14:08:00.263Z,73.20
2019-02-09T14:10:29.723Z,73.10
2019-02-09T14:12:59.003Z,72.50
2019-02-09T14:15:30.028Z,72.40
2019-02-09T14:18:00.857Z,71.20
2019-02-09T14:20:31.116Z,70.90
2019-02-09T14:23:00.416Z,68.50
2019-02-09T14:25:29.501Z,67.50
2019-02-09T14:28:01.087Z,66.90
2019-02-09T14:30:32.667Z,66.10
2019-02-09T14:33:03.185Z,66.00
2019-02-09T14:35:32.337Z,65.50
2019-02-09T14:38:01.536Z,65.00
2019-02-09T14:40:31.655Z,63.80
2019-02-09T14:43:00.993Z,63.50
2019-02-09T14:45:37.694Z,63.40
2019-02-09T14:48:06.903Z,62.90
2019-02-09T14:50:36.274Z,62.50
2019-02-09T14:53:06.310Z,62.50
2019-02-09T14:55:36.205Z,61.80
2019-02-09T14:58:05.574Z,62.20
2019-02-09T15:00:43.445Z,61.80
2019-02-09T15:03:13.311Z,62.40
2019-02-09T15:05:42.703Z,62.50
2019-02-09T15:08:12.013Z,62.20
2019-02-09T15:10:41.367Z,62.00
2019-02-09T15:13:12.170Z,62.50
2019-02-09T15:15:47.749Z,61.60
2019-02-09T15:18:19.285Z,61.80
2019-02-09T15:20:54.724Z,61.70
2019-02-09T15:23:23.852Z,61.70
2019-02-09T15:25:52.909Z,61.30
2019-02-09T15:28:22.040Z,61.60
2019-02-09T15:30:51.233Z,61.70
2019-02-09T15:33:20.513Z,61.40
2019-02-09T15:35:49.963Z,61.30
2019-02-09T15:38:19.174Z,61.30
2019-02-09T15:40:48.344Z,61.60
2019-02-09T15:43:17.456Z,61.80
2019-02-09T15:45:46.509Z,61.70
2019-02-09T15:48:15.658Z,61.70
2019-02-09T15:50:45.318Z,61.70
2019-02-09T15:53:14.434Z,61.70
2019-02-09T15:55:43.584Z,61.50
2019-02-09T15:58:12.690Z,61.30
2019-02-09T16:00:41.640Z,61.10
2019-02-09T16:03:10.616Z,60.90
2019-02-09T16:05:39.771Z,60.90
2019-02-09T16:08:08.990Z,60.60
2019-02-09T16:10:38.107Z,60.80
2019-02-09T16:13:08.453Z,60.70
2019-02-09T16:15:37.357Z,60.30
2019-02-09T16:18:06.638Z,60.20
2019-02-09T16:20:36.014Z,60.10
2019-02-09T16:23:05.667Z,60.30
2019-02-09T16:25:35.073Z,60.50
2019-02-09T16:28:04.532Z,60.70
2019-02-09T16:30:33.864Z,61.60
2019-02-09T16:33:03.244Z,61.80
2019-02-09T16:35:32.725Z,61.90
2019-02-09T16:38:01.915Z,61.90
2019-02-09T16:40:31.063Z,62.00
2019-02-09T16:43:00.208Z,61.80
2019-02-09T16:45:33.845Z,61.90
2019-02-09T16:48:03.096Z,61.70
2019-02-09T16:50:32.169Z,61.90
2019-02-09T16:53:01.367Z,61.60
2019-02-09T16:55:30.401Z,61.70
2019-02-09T16:57:59.636Z,61.80
2019-02-09T17:00:33.981Z,61.80
2019-02-09T17:03:03.168Z,62.00
2019-02-09T17:05:32.318Z,62.00
2019-02-09T17:08:01.320Z,62.30
2019-02-09T17:10:30.388Z,62.40
2019-02-09T17:12:59.905Z,62.70
2019-02-09T17:15:29.262Z,62.70
2019-02-09T17:17:58.464Z,63.10
2019-02-09T17:20:27.667Z,63.70
2019-02-09T17:22:57.220Z,64.00
2019-02-09T17:25:26.615Z,64.70
2019-02-09T17:27:55.792Z,65.10
2019-02-09T17:30:26.695Z,65.40
2019-02-09T17:32:56.054Z,65.70
2019-02-09T17:35:26.934Z,66.00
2019-02-09T17:37:56.247Z,66.50
2019-02-09T17:40:30.708Z,66.80
2019-02-09T17:43:00.113Z,67.00
2019-02-09T17:45:34.702Z,67.50
2019-02-09T17:48:04.038Z,69.00
2019-02-09T17:50:33.139Z,77.80
2019-02-09T17:53:02.422Z,90.60
2019-02-09T17:55:31.543Z,90.60
2019-02-09T17:58:00.637Z,91.80
2019-02-09T18:00:40.276Z,93.50
2019-02-09T18:03:09.472Z,94.70
2019-02-09T18:05:38.560Z,95.60
2019-02-09T18:08:08.082Z,96.00
2019-02-09T18:10:37.167Z,96.40
2019-02-09T18:13:06.695Z,96.00
2019-02-09T18:15:35.711Z,95.40
2019-02-09T18:18:06.272Z,95.30
2019-02-09T18:20:35.297Z,94.90
2019-02-09T18:23:04.599Z,94.90
2019-02-09T18:25:33.782Z,94.50
2019-02-09T18:28:02.794Z,94.00
2019-02-09T18:30:32.120Z,93.80
2019-02-09T18:33:01.393Z,93.40
2019-02-09T18:35:30.783Z,93.60
2019-02-09T18:37:59.881Z,92.90
2019-02-09T18:40:29.427Z,92.50
2019-02-09T18:42:58.864Z,92.40
2019-02-09T18:45:28.333Z,91.80
2019-02-09T18:47:57.721Z,91.80
2019-02-09T18:50:27.217Z,91.80
2019-02-09T18:52:56.947Z,91.70
2019-02-09T18:55:26.390Z,91.60
2019-02-09T18:57:55.752Z,91.40
2019-02-09T19:00:26.673Z,91.40
2019-02-09T19:02:56.054Z,91.40
2019-02-09T19:05:25.298Z,91.30
2019-02-09T19:07:54.409Z,91.50
2019-02-09T19:10:24.854Z,91.40
2019-02-09T19:12:54.144Z,91.60
2019-02-09T19:15:26.773Z,91.40
2019-02-09T19:17:56.192Z,91.30
2019-02-09T19:20:36.820Z,91.30
2019-02-09T19:23:08.047Z,91.40
2019-02-09T19:25:37.345Z,91.30
2019-02-09T19:28:06.767Z,91.20
2019-02-09T19:30:35.948Z,91.00
2019-02-09T19:33:05.513Z,90.90
2019-02-09T19:35:34.667Z,90.90
2019-02-09T19:38:03.867Z,90.80
2019-02-09T19:40:32.968Z,90.70
2019-02-09T19:43:02.102Z,90.60
2019-02-09T19:45:32.974Z,90.40
2019-02-09T19:48:02.308Z,90.40
2019-02-09T19:50:31.560Z,90.70
2019-02-09T19:53:00.797Z,90.60
2019-02-09T19:55:30.092Z,90.40
2019-02-09T19:58:00.046Z,90.40
2019-02-09T20:00:37.649Z,90.00
2019-02-09T20:03:07.568Z,90.00
2019-02-09T20:05:37.206Z,89.30
2019-02-09T20:08:08.139Z,89.10
2019-02-09T20:10:38.534Z,88.70
2019-02-09T20:13:09.994Z,88.60
2019-02-09T20:15:39.654Z,88.60
2019-02-09T20:18:09.765Z,87.80
2019-02-09T20:20:46.477Z,87.40
2019-02-09T20:23:09.822Z,86.60
2019-02-09T20:25:42.137Z,86.80
2019-02-09T20:28:11.369Z,86.90
2019-02-09T20:30:40.574Z,86.80
2019-02-09T20:33:09.832Z,86.50
2019-02-09T20:35:39.669Z,86.50
2019-02-09T20:38:09.717Z,86.20
2019-02-09T20:40:40.987Z,86.20
2019-02-09T20:43:11.646Z,86.30
2019-02-09T20:45:41.057Z,86.40
2019-02-09T20:48:10.394Z,87.30
2019-02-09T20:50:41.340Z,86.40
2019-02-09T20:53:10.655Z,86.40
2019-02-09T20:55:39.868Z,85.90
2019-02-09T20:58:11.291Z,86.70
2019-02-09T21:00:41.061Z,86.00
2019-02-09T21:03:10.753Z,86.20
2019-02-09T21:05:40.255Z,86.30
2019-02-09T21:08:11.092Z,86.60
2019-02-09T21:10:40.603Z,87.10
2019-02-09T21:13:12.165Z,87.20
2019-02-09T21:15:41.406Z,87.20
2019-02-09T21:18:10.779Z,87.20
2019-02-09T21:20:39.875Z,87.00
2019-02-09T21:23:10.162Z,87.00
2019-02-09T21:25:41.405Z,87.10
2019-02-09T21:28:10.908Z,87.00
2019-02-09T21:30:40.234Z,86.90
2019-02-09T21:33:09.461Z,87.00
2019-02-09T21:35:43.844Z,87.10
2019-02-09T21:38:10.112Z,87.40
2019-02-09T21:40:39.683Z,86.30
2019-02-09T21:43:08.840Z,86.50
2019-02-09T21:45:45.012Z,86.20
2019-02-09T21:48:09.017Z,86.20
2019-02-09T21:50:38.336Z,86.10
2019-02-09T21:53:08.251Z,85.30
2019-02-09T21:55:38.309Z,85.50
2019-02-09T21:58:10.291Z,85.30
2019-02-09T22:00:41.043Z,85.40
2019-02-09T22:03:11.875Z,85.20
2019-02-09T22:05:41.418Z,85.10
2019-02-09T22:08:19.229Z,84.80
2019-02-09T22:10:43.062Z,84.90
2019-02-09T22:13:12.228Z,84.30
2019-02-09T22:15:41.387Z,84.50
2019-02-09T22:18:10.346Z,84.10
2019-02-09T22:20:39.471Z,84.50
2019-02-09T22:23:08.835Z,84.30
2019-02-09T22:25:39.229Z,84.00
2019-02-09T22:28:08.624Z,83.80
2019-02-09T22:30:38.008Z,83.60
2019-02-09T22:33:10.177Z,83.60
2019-02-09T22:35:39.303Z,83.80
2019-02-09T22:38:08.437Z,83.40
2019-02-09T22:40:38.077Z,83.80
2019-02-09T22:43:07.771Z,83.70
2019-02-09T22:45:37.449Z,83.40
2019-02-09T22:48:09.193Z,83.40
2019-02-09T22:50:40.612Z,83.40
2019-02-09T22:53:09.908Z,83.10
2019-02-09T22:55:39.047Z,82.80
2019-02-09T22:58:08.539Z,82.40
2019-02-09T23:00:55.401Z,82.00
2019-02-09T23:03:40.707Z,82.10
2019-02-09T23:06:36.381Z,82.00
2019-02-09T23:09:08.224Z,82.00
2019-02-09T23:11:37.442Z,81.90
2019-02-09T23:14:06.649Z,81.70
2019-02-09T23:16:38.878Z,81.60
2019-02-09T23:19:08.040Z,81.40
2019-02-09T23:21:37.082Z,81.10
2019-02-09T23:24:06.220Z,81.10
2019-02-09T23:26:35.298Z,81.10
2019-02-09T23:29:04.330Z,80.70
2019-02-09T23:31:33.360Z,81.10
2019-02-09T23:34:07.007Z,81.20
2019-02-09T23:36:36.164Z,81.20
2019-02-09T23:39:06.175Z,81.20
2019-02-09T23:41:35.217Z,80.80
2019-02-09T23:44:05.434Z,80.80
2019-02-09T23:46:34.524Z,81.00
2019-02-09T23:49:03.720Z,81.20
2019-02-09T23:51:32.921Z,81.20
2019-02-09T23:54:02.078Z,81.20
2019-02-09T23:56:31.387Z,81.10
2019-02-09T23:59:00.402Z,81.10
